createdAt,value
2022-12-03T00:02:02.007Z,18.90
2022-12-03T00:04:29.075Z,18.83
2022-12-03T00:06:55.624Z,19.00
2022-12-03T00:09:22.613Z,15.70
2022-12-03T00:11:49.613Z,16.53
2022-12-03T00:14:16.594Z,14.00
2022-12-03T00:16:43.456Z,16.67
2022-12-03T00:19:10.450Z,14.10
2022-12-03T00:21:37.438Z,16.27
2022-12-03T00:24:04.500Z,17.37
2022-12-03T00:26:31.479Z,13.73
2022-12-03T00:28:58.596Z,11.80
2022-12-03T00:31:25.848Z,13.57
2022-12-03T00:33:53.190Z,23.00
2022-12-03T00:36:20.484Z,17.90
2022-12-03T00:38:47.580Z,12.50
2022-12-03T00:41:14.591Z,21.90
2022-12-03T00:43:41.612Z,15.83
2022-12-03T00:46:08.692Z,15.40
2022-12-03T00:48:35.352Z,14.77
2022-12-03T00:51:02.345Z,15.73
2022-12-03T00:53:29.000Z,12.23
2022-12-03T00:55:56.007Z,19.63
2022-12-03T00:58:23.035Z,16.40
2022-12-03T01:00:49.668Z,23.03
2022-12-03T01:03:16.650Z,17.67
2022-12-03T01:05:43.653Z,19.63
2022-12-03T01:08:11.425Z,16.10
2022-12-03T01:10:38.576Z,18.67
2022-12-03T01:13:05.194Z,18.67
2022-12-03T01:15:31.791Z,13.93
2022-12-03T01:17:58.786Z,17.37
2022-12-03T01:20:25.762Z,19.53
2022-12-03T01:22:52.750Z,22.67
2022-12-03T01:25:19.332Z,12.33
2022-12-03T01:27:46.389Z,15.43
2022-12-03T01:30:13.716Z,18.07
2022-12-03T01:32:40.796Z,21.37
2022-12-03T01:35:07.943Z,17.30
2022-12-03T01:37:34.985Z,19.20
2022-12-03T01:40:02.003Z,18.53
2022-12-03T01:42:39.434Z,21.70
2022-12-03T01:45:07.409Z,17.70
2022-12-03T01:47:36.644Z,19.63
2022-12-03T01:50:08.648Z,21.43
2022-12-03T01:52:39.085Z,17.60
2022-12-03T01:55:12.799Z,13.83
2022-12-03T01:57:47.025Z,15.70
2022-12-03T02:00:19.500Z,15.50
2022-12-03T02:02:48.601Z,17.20
2022-12-03T02:05:43.188Z,17.37
2022-12-03T02:08:29.839Z,16.97
2022-12-03T02:10:59.740Z,12.53
2022-12-03T02:13:26.439Z,18.40
2022-12-03T02:15:53.523Z,12.77
2022-12-03T02:18:20.588Z,13.03
2022-12-03T02:21:01.208Z,13.87
2022-12-03T02:24:04.666Z,15.77
2022-12-03T02:26:31.261Z,16.60
2022-12-03T02:28:58.374Z,13.77
2022-12-03T02:31:25.104Z,14.57
2022-12-03T02:33:51.799Z,12.20
2022-12-03T02:36:19.019Z,14.13
2022-12-03T02:38:46.374Z,14.93
2022-12-03T02:41:36.865Z,14.20
2022-12-03T02:44:06.010Z,18.40
2022-12-03T02:46:33.496Z,16.10
2022-12-03T02:49:01.414Z,17.20
2022-12-03T02:51:28.095Z,14.83
2022-12-03T02:53:56.654Z,17.03
2022-12-03T02:56:28.495Z,16.97
2022-12-03T02:58:58.218Z,13.43
2022-12-03T03:01:25.335Z,16.73
2022-12-03T03:03:52.493Z,15.77
2022-12-03T03:06:20.563Z,16.30
2022-12-03T03:08:47.649Z,16.37
2022-12-03T03:11:14.701Z,14.47
2022-12-03T03:13:41.782Z,17.30
2022-12-03T03:16:08.990Z,20.20
2022-12-03T03:18:36.522Z,14.43
2022-12-03T03:21:03.936Z,18.57
2022-12-03T03:23:30.966Z,14.87
2022-12-03T03:26:07.032Z,19.50
2022-12-03T03:28:37.760Z,14.57
2022-12-03T03:31:06.605Z,17.80
2022-12-03T03:33:33.768Z,21.20
2022-12-03T03:36:01.214Z,16.00
2022-12-03T03:38:29.487Z,18.20
2022-12-03T03:40:57.889Z,21.60
2022-12-03T03:43:24.893Z,16.57
2022-12-03T03:45:53.516Z,18.20
2022-12-03T03:48:20.743Z,15.43
2022-12-03T03:50:48.004Z,19.03
2022-12-03T03:53:15.753Z,15.57
2022-12-03T03:55:42.979Z,20.97
2022-12-03T03:58:09.794Z,17.93
2022-12-03T04:00:37.131Z,18.07
2022-12-03T04:03:04.912Z,19.27
2022-12-03T04:05:31.944Z,21.87
2022-12-03T04:07:59.258Z,20.93
2022-12-03T04:10:45.420Z,24.97
2022-12-03T04:13:12.005Z,21.60
2022-12-03T04:15:38.634Z,17.27
2022-12-03T04:18:23.910Z,22.47
2022-12-03T04:20:50.579Z,24.17
2022-12-03T04:23:17.604Z,21.30
2022-12-03T04:26:02.858Z,20.43
2022-12-03T04:28:48.680Z,21.67
2022-12-03T04:31:34.677Z,21.07
2022-12-03T04:34:20.531Z,22.60
2022-12-03T04:36:47.351Z,18.07
2022-12-03T04:39:14.028Z,22.03
2022-12-03T04:41:41.085Z,20.00
2022-12-03T04:44:26.852Z,20.60
2022-12-03T04:46:53.406Z,25.27
2022-12-03T04:49:20.401Z,23.63
2022-12-03T04:51:47.409Z,26.23
2022-12-03T04:54:14.491Z,22.37
2022-12-03T04:56:41.297Z,23.60
2022-12-03T04:59:14.206Z,18.40
2022-12-03T05:01:42.748Z,21.47
2022-12-03T05:04:09.801Z,26.90
2022-12-03T05:06:36.805Z,21.80
2022-12-03T05:09:03.862Z,26.83
2022-12-03T05:11:30.861Z,24.50
2022-12-03T05:13:57.869Z,20.33
2022-12-03T05:16:25.113Z,19.27
2022-12-03T05:18:52.200Z,23.07
2022-12-03T05:21:18.812Z,27.03
2022-12-03T05:23:45.814Z,24.70
2022-12-03T05:26:12.954Z,21.73
2022-12-03T05:28:39.558Z,19.73
2022-12-03T05:31:06.791Z,22.07
2022-12-03T05:33:33.856Z,22.00
2022-12-03T05:36:00.870Z,22.40
2022-12-03T05:38:27.882Z,28.07
2022-12-03T05:40:55.165Z,23.50
2022-12-03T05:43:21.715Z,24.03
2022-12-03T05:45:48.834Z,27.53
2022-12-03T05:48:16.769Z,22.10
2022-12-03T05:50:45.516Z,25.90
2022-12-03T05:53:13.132Z,22.67
2022-12-03T05:55:39.887Z,20.90
2022-12-03T05:58:06.902Z,22.90
2022-12-03T06:00:42.517Z,20.60
2022-12-03T06:03:10.107Z,27.83
2022-12-03T06:05:37.317Z,21.33
2022-12-03T06:08:04.567Z,24.10
2022-12-03T06:10:32.448Z,20.67
2022-12-03T06:12:59.077Z,22.80
2022-12-03T06:15:26.126Z,21.73
2022-12-03T06:17:53.199Z,24.10
2022-12-03T06:20:20.632Z,17.40
2022-12-03T06:22:47.844Z,22.27
2022-12-03T06:25:15.116Z,21.00
2022-12-03T06:27:41.777Z,18.67
2022-12-03T06:30:09.231Z,24.67
2022-12-03T06:32:36.120Z,15.70
2022-12-03T06:35:03.249Z,26.17
2022-12-03T06:37:29.820Z,24.07
2022-12-03T06:39:56.863Z,26.50
2022-12-03T06:42:23.871Z,23.73
2022-12-03T06:44:51.350Z,26.80
2022-12-03T06:47:18.527Z,22.30
2022-12-03T06:49:45.512Z,24.17
2022-12-03T06:52:12.529Z,28.83
2022-12-03T06:54:39.532Z,30.30
2022-12-03T06:57:06.529Z,22.67
2022-12-03T06:59:35.683Z,27.17
2022-12-03T07:02:02.848Z,26.83
2022-12-03T07:04:29.888Z,25.37
2022-12-03T07:06:56.917Z,23.30
2022-12-03T07:09:23.894Z,23.53
2022-12-03T07:11:50.571Z,30.97
2022-12-03T07:14:17.598Z,27.33
2022-12-03T07:16:44.365Z,22.83
2022-12-03T07:19:11.683Z,24.37
2022-12-03T07:21:38.752Z,21.60
2022-12-03T07:24:06.066Z,21.50
2022-12-03T07:26:33.051Z,34.07
2022-12-03T07:29:00.094Z,28.73
2022-12-03T07:31:27.346Z,27.70
2022-12-03T07:33:54.468Z,28.80
2022-12-03T07:36:21.532Z,30.20
2022-12-03T07:38:48.699Z,34.33
2022-12-03T07:41:15.736Z,27.83
2022-12-03T07:43:43.620Z,20.80
2022-12-03T07:46:10.679Z,24.50
2022-12-03T07:48:37.294Z,25.97
2022-12-03T07:51:04.364Z,24.27
2022-12-03T07:53:31.339Z,24.47
2022-12-03T07:55:57.950Z,24.47
2022-12-03T07:58:24.966Z,26.47
2022-12-03T08:00:52.113Z,21.90
2022-12-03T08:03:19.188Z,23.30
2022-12-03T08:05:46.183Z,25.37
2022-12-03T08:08:13.743Z,26.17
2022-12-03T08:10:40.921Z,23.70
2022-12-03T08:13:13.498Z,29.80
2022-12-03T08:15:40.557Z,23.03
2022-12-03T08:18:19.504Z,26.47
2022-12-03T08:20:48.344Z,25.93
2022-12-03T08:23:20.949Z,24.17
2022-12-03T08:25:49.134Z,28.40
2022-12-03T08:28:25.609Z,36.07
2022-12-03T08:31:11.914Z,20.17
2022-12-03T08:33:40.006Z,22.67
2022-12-03T08:36:12.850Z,24.23
2022-12-03T08:38:39.893Z,20.67
2022-12-03T08:41:14.796Z,17.57
2022-12-03T08:43:43.681Z,20.97
2022-12-03T08:46:16.483Z,25.27
2022-12-03T08:48:48.636Z,29.53
2022-12-03T08:51:25.066Z,17.43
2022-12-03T08:54:01.586Z,23.60
2022-12-03T08:56:30.629Z,20.67
2022-12-03T08:59:39.359Z,24.27
2022-12-03T09:02:17.709Z,18.10
2022-12-03T09:04:46.556Z,18.07
2022-12-03T09:07:13.141Z,17.40
2022-12-03T09:09:40.311Z,17.60
2022-12-03T09:18:47.364Z,22.33
2022-12-03T09:21:14.469Z,21.97
2022-12-03T09:23:41.499Z,21.73
2022-12-03T09:26:08.172Z,20.10
2022-12-03T09:28:35.172Z,21.93
2022-12-03T09:31:02.172Z,26.83
2022-12-03T09:33:31.008Z,16.57
2022-12-03T09:35:57.899Z,21.53
2022-12-03T09:38:24.900Z,21.67
2022-12-03T09:40:52.060Z,20.93
2022-12-03T09:43:19.707Z,20.67
2022-12-03T09:45:47.964Z,24.80
2022-12-03T09:48:17.997Z,19.47
2022-12-03T09:50:45.245Z,18.90
2022-12-03T09:53:20.225Z,14.77
2022-12-03T09:55:47.913Z,18.43
2022-12-03T09:58:17.867Z,20.20
2022-12-03T10:00:48.095Z,19.13
2022-12-03T10:03:17.417Z,22.50
2022-12-03T10:05:48.036Z,18.60
2022-12-03T10:08:20.705Z,14.00
2022-12-03T10:10:51.617Z,17.37
2022-12-03T10:13:30.308Z,17.93
2022-12-03T10:15:59.704Z,20.70
2022-12-03T10:18:30.776Z,16.27
2022-12-03T10:20:58.225Z,19.17
2022-12-03T10:23:27.574Z,17.00
2022-12-03T10:25:57.083Z,16.87
2022-12-03T10:28:40.039Z,19.87
2022-12-03T10:31:09.711Z,16.73
2022-12-03T10:33:38.990Z,19.47
2022-12-03T10:36:16.087Z,16.57
2022-12-03T10:38:43.252Z,15.03
2022-12-03T10:41:27.414Z,17.03
2022-12-03T10:43:54.490Z,17.27
2022-12-03T10:46:22.350Z,20.47
2022-12-03T10:49:10.033Z,10.43
2022-12-03T10:51:38.111Z,15.83
2022-12-03T10:54:13.082Z,18.77
2022-12-03T10:56:39.765Z,14.20
2022-12-03T10:59:08.405Z,12.43
2022-12-03T11:01:35.484Z,15.23
2022-12-03T11:04:04.814Z,12.97
2022-12-03T11:06:34.936Z,13.30
2022-12-03T11:09:07.071Z,15.77
2022-12-03T11:11:35.526Z,18.07
2022-12-03T11:14:03.971Z,14.97
2022-12-03T11:16:39.703Z,17.57
2022-12-03T11:22:27.738Z,13.73
2022-12-03T11:25:25.298Z,16.57
2022-12-03T11:28:17.934Z,20.77
2022-12-03T11:30:53.790Z,12.80
2022-12-03T11:33:35.543Z,13.30
2022-12-03T11:36:02.552Z,13.97
2022-12-03T11:38:41.292Z,14.30
2022-12-03T11:41:08.961Z,15.27
2022-12-03T11:43:56.387Z,15.33
2022-12-03T11:46:42.938Z,14.40
2022-12-03T11:49:28.598Z,16.40
2022-12-03T11:51:55.732Z,12.30
2022-12-03T11:54:23.740Z,13.50
2022-12-03T11:56:52.764Z,14.77
2022-12-03T11:59:19.969Z,13.97
2022-12-03T12:01:47.058Z,12.17
2022-12-03T12:04:37.611Z,14.23
2022-12-03T12:07:04.401Z,13.83
2022-12-03T12:09:50.746Z,19.27
2022-12-03T12:12:26.780Z,12.40
2022-12-03T12:14:53.756Z,17.17
2022-12-03T12:17:33.337Z,15.83
2022-12-03T12:20:22.869Z,13.90
2022-12-03T12:22:49.897Z,14.00
2022-12-03T12:25:40.171Z,15.57
2022-12-03T12:28:07.417Z,14.73
2022-12-03T12:30:34.488Z,12.10
2022-12-03T12:33:01.455Z,15.43
2022-12-03T12:35:32.138Z,17.30
2022-12-03T12:38:07.549Z,11.93
2022-12-03T12:40:39.881Z,12.80
2022-12-03T12:43:27.414Z,12.87
2022-12-03T12:45:56.007Z,13.43
2022-12-03T12:48:28.102Z,13.90
2022-12-03T12:51:00.527Z,14.93
2022-12-03T12:53:33.170Z,15.83
2022-12-03T12:56:04.978Z,14.20
2022-12-03T12:58:33.121Z,12.93
2022-12-03T13:01:19.626Z,16.57
2022-12-03T13:03:50.442Z,19.10
2022-12-03T13:06:17.619Z,14.77
2022-12-03T13:08:46.932Z,16.53
2022-12-03T13:11:24.914Z,13.03
2022-12-03T13:13:51.980Z,14.57
2022-12-03T13:16:20.349Z,14.40
2022-12-03T13:18:49.510Z,20.33
2022-12-03T13:21:32.585Z,13.67
2022-12-03T13:23:59.657Z,19.53
2022-12-03T13:26:39.607Z,15.53
2022-12-03T13:29:18.794Z,17.03
2022-12-03T13:32:13.543Z,16.43
2022-12-03T13:34:40.913Z,17.00
2022-12-03T13:37:14.231Z,22.90
2022-12-03T13:39:49.091Z,25.03
2022-12-03T13:42:41.324Z,22.23
2022-12-03T13:45:14.084Z,21.53
2022-12-03T13:47:41.753Z,18.70
2022-12-03T13:50:27.083Z,17.50
2022-12-03T13:52:54.329Z,16.43
2022-12-03T13:55:28.912Z,16.50
2022-12-03T13:57:55.950Z,17.27
2022-12-03T14:00:23.425Z,14.63
2022-12-03T14:02:50.052Z,16.10
2022-12-03T14:05:16.756Z,17.63
2022-12-03T14:07:43.825Z,16.67
2022-12-03T14:10:12.102Z,19.33
2022-12-03T14:12:38.839Z,16.57
2022-12-03T14:15:06.424Z,15.53
2022-12-03T14:17:33.424Z,15.17
2022-12-03T14:20:01.359Z,14.70
2022-12-03T14:22:28.631Z,15.83
2022-12-03T14:24:55.265Z,15.27
2022-12-03T14:27:22.320Z,22.07
2022-12-03T14:29:49.313Z,18.43
2022-12-03T14:32:16.566Z,19.60
2022-12-03T14:34:43.664Z,23.80
2022-12-03T14:37:10.246Z,22.40
2022-12-03T14:39:37.111Z,20.37
2022-12-03T14:42:13.535Z,15.53
2022-12-03T14:44:40.729Z,20.33
2022-12-03T14:47:07.895Z,24.53
2022-12-03T14:49:34.911Z,22.20
2022-12-03T14:52:02.098Z,27.17
2022-12-03T14:54:29.124Z,25.53
2022-12-03T14:56:56.216Z,20.10
2022-12-03T14:59:27.571Z,25.03
2022-12-03T15:01:55.347Z,20.50
2022-12-03T15:04:22.469Z,25.67
2022-12-03T15:06:49.550Z,21.57
2022-12-03T15:09:16.172Z,22.27
2022-12-03T15:11:46.176Z,21.60
2022-12-03T15:14:13.596Z,22.60
2022-12-03T15:16:40.272Z,27.20
2022-12-03T15:19:07.043Z,21.13
2022-12-03T15:21:34.880Z,21.47
2022-12-03T15:24:02.783Z,23.70
2022-12-03T15:26:29.779Z,25.10
2022-12-03T15:28:56.338Z,24.63
2022-12-03T15:31:23.021Z,21.80
2022-12-03T15:33:49.679Z,30.23
2022-12-03T15:36:16.854Z,26.07
2022-12-03T15:38:43.432Z,23.67
2022-12-03T15:41:29.304Z,25.33
2022-12-03T15:44:03.768Z,27.30
2022-12-03T15:46:31.528Z,24.63
2022-12-03T15:48:58.759Z,24.80
2022-12-03T15:51:25.617Z,24.27
2022-12-03T15:53:52.288Z,21.90
2022-12-03T15:56:19.153Z,27.37
2022-12-03T15:58:45.776Z,21.80
2022-12-03T16:01:13.551Z,24.63
2022-12-03T16:03:40.805Z,23.37
2022-12-03T16:06:07.722Z,29.30
2022-12-03T16:08:34.341Z,26.83
2022-12-03T16:11:01.351Z,23.03
2022-12-03T16:13:27.927Z,23.30
2022-12-03T16:15:54.616Z,30.37
2022-12-03T16:18:21.795Z,26.53
2022-12-03T16:20:48.860Z,26.70
2022-12-03T16:23:15.939Z,27.10
2022-12-03T16:25:42.924Z,26.53
2022-12-03T16:28:10.054Z,25.77
2022-12-03T16:30:37.317Z,26.23
2022-12-03T16:33:04.003Z,26.43
2022-12-03T16:35:31.109Z,24.10
2022-12-03T16:37:58.103Z,26.43
2022-12-03T16:40:24.730Z,30.10
2022-12-03T16:42:51.423Z,26.93
2022-12-03T16:45:21.605Z,23.73
2022-12-03T16:47:48.624Z,29.83
2022-12-03T16:50:21.907Z,28.37
2022-12-03T16:52:54.600Z,30.13
2022-12-03T16:55:21.220Z,29.13
2022-12-03T16:57:48.311Z,26.47
2022-12-03T17:00:15.781Z,28.77
2022-12-03T17:02:42.837Z,27.93
2022-12-03T17:05:09.947Z,33.77
2022-12-03T17:07:37.333Z,26.33
2022-12-03T17:10:04.935Z,29.80
2022-12-03T17:12:54.201Z,26.93
2022-12-03T17:15:18.157Z,30.13
2022-12-03T17:17:45.135Z,31.97
2022-12-03T17:20:13.243Z,29.70
2022-12-03T17:22:40.171Z,33.63
2022-12-03T17:25:07.592Z,28.70
2022-12-03T17:27:34.205Z,22.43
2022-12-03T17:30:01.344Z,32.43
2022-12-03T17:32:27.884Z,33.70
2022-12-03T17:34:54.934Z,31.03
2022-12-03T17:37:21.531Z,28.90
2022-12-03T17:39:48.372Z,31.93
2022-12-03T17:42:15.416Z,24.60
2022-12-03T17:44:42.034Z,31.17
2022-12-03T17:47:09.076Z,38.07
2022-12-03T17:49:36.084Z,28.60
2022-12-03T17:52:03.236Z,28.60
2022-12-03T17:54:55.252Z,33.07
2022-12-03T17:57:17.791Z,35.20
2022-12-03T17:59:44.443Z,31.20
2022-12-03T18:02:11.208Z,30.90
2022-12-03T18:04:38.243Z,28.17
2022-12-03T18:07:04.804Z,28.73
2022-12-03T18:09:31.601Z,30.43
2022-12-03T18:11:58.701Z,29.93
2022-12-03T18:14:25.428Z,32.13
2022-12-03T18:16:52.030Z,30.47
2022-12-03T18:19:18.807Z,36.80
2022-12-03T18:21:45.432Z,30.13
2022-12-03T18:24:12.432Z,28.20
2022-12-03T18:26:39.028Z,36.00
2022-12-03T18:29:05.664Z,30.27
2022-12-03T18:31:32.307Z,32.33
2022-12-03T18:33:59.347Z,33.13
2022-12-03T18:36:29.762Z,40.00
2022-12-03T18:38:58.197Z,41.07
2022-12-03T18:41:25.373Z,37.53
2022-12-03T18:43:52.388Z,31.83
2022-12-03T18:49:07.461Z,39.40
2022-12-03T18:51:34.074Z,38.47
2022-12-03T18:54:00.721Z,35.30
2022-12-03T18:56:27.685Z,33.67
2022-12-03T18:58:54.295Z,40.30
2022-12-03T19:01:22.731Z,38.17
2022-12-03T19:03:50.221Z,40.00
2022-12-03T19:06:20.636Z,36.67
2022-12-03T19:08:54.033Z,37.53
2022-12-03T19:11:22.132Z,36.07
2022-12-03T19:13:48.784Z,35.30
2022-12-03T19:16:17.110Z,40.63
2022-12-03T19:18:44.362Z,35.97
2022-12-03T19:21:13.517Z,35.40
2022-12-03T19:23:40.631Z,33.83
2022-12-03T19:26:09.814Z,39.10
2022-12-03T19:28:36.721Z,39.30
2022-12-03T19:31:06.720Z,43.13
2022-12-03T19:33:33.928Z,34.97
2022-12-03T19:36:01.664Z,42.00
2022-12-03T19:38:29.505Z,39.27
2022-12-03T19:41:05.225Z,33.67
2022-12-03T19:43:33.962Z,35.73
2022-12-03T19:46:11.896Z,36.57
2022-12-03T19:48:40.117Z,32.90
2022-12-03T19:51:33.167Z,29.70
2022-12-03T19:53:54.513Z,39.40
2022-12-03T19:56:21.256Z,38.27
2022-12-03T19:58:48.023Z,40.10
2022-12-03T20:01:20.316Z,35.63
2022-12-03T20:03:52.316Z,36.23
2022-12-03T20:06:23.107Z,34.20
2022-12-03T20:08:50.526Z,38.13
2022-12-03T20:11:26.174Z,39.80
2022-12-03T20:14:01.829Z,37.90
2022-12-03T20:16:29.076Z,36.47
2022-12-03T20:18:58.052Z,33.57
2022-12-03T20:21:24.835Z,35.67
2022-12-03T20:23:51.891Z,37.73
2022-12-03T20:26:20.502Z,37.40
2022-12-03T20:28:48.109Z,35.07
2022-12-03T20:31:17.342Z,36.63
2022-12-03T20:33:47.081Z,30.87
2022-12-03T20:36:16.127Z,33.80
2022-12-03T20:38:43.048Z,33.10
2022-12-03T20:41:12.172Z,37.73
2022-12-03T20:43:39.829Z,33.67
2022-12-03T20:46:27.522Z,35.37
2022-12-03T20:48:55.140Z,36.87
2022-12-03T20:51:25.556Z,39.27
2022-12-03T20:53:52.269Z,37.60
2022-12-03T20:56:22.103Z,33.40
2022-12-03T20:58:49.661Z,39.57
2022-12-03T21:01:21.029Z,37.10
2022-12-03T21:03:48.888Z,35.33
2022-12-03T21:06:16.741Z,38.10
2022-12-03T21:08:44.252Z,33.27
2022-12-03T21:11:16.887Z,33.87
2022-12-03T21:13:44.257Z,36.63
2022-12-03T21:16:51.945Z,33.27
2022-12-03T21:19:13.755Z,33.40
2022-12-03T21:21:40.316Z,36.67
2022-12-03T21:24:07.461Z,34.13
2022-12-03T21:26:34.502Z,39.60
2022-12-03T21:29:01.060Z,37.43
2022-12-03T21:31:29.997Z,37.00
2022-12-03T21:33:57.179Z,33.43
2022-12-03T21:36:25.172Z,31.83
2022-12-03T21:38:52.629Z,34.50
2022-12-03T21:41:19.258Z,33.87
2022-12-03T21:43:46.324Z,31.37
2022-12-03T21:47:09.219Z,36.33
2022-12-03T21:49:02.384Z,30.30
2022-12-03T21:51:29.575Z,31.80
2022-12-03T21:53:56.650Z,33.90
2022-12-03T21:56:23.230Z,33.70
2022-12-03T21:58:49.904Z,36.40
2022-12-03T22:01:23.034Z,32.73
2022-12-03T22:03:50.565Z,32.40
2022-12-03T22:06:18.096Z,42.43
2022-12-03T22:08:45.265Z,34.80
2022-12-03T22:11:17.405Z,31.13
2022-12-03T22:13:44.950Z,33.43
2022-12-03T22:16:14.934Z,33.53
2022-12-03T22:18:42.348Z,38.47
2022-12-03T22:21:12.380Z,38.17
2022-12-03T22:23:39.639Z,28.53
2022-12-03T22:26:14.490Z,36.97
2022-12-03T22:28:48.944Z,28.07
2022-12-03T22:31:17.097Z,26.63
2022-12-03T22:33:47.912Z,32.60
2022-12-03T22:36:20.565Z,31.00
2022-12-03T22:38:50.061Z,33.10
2022-12-03T22:41:16.916Z,36.83
2022-12-03T22:43:44.093Z,26.53
2022-12-03T22:46:12.608Z,29.60
2022-12-03T22:48:40.620Z,31.90
2022-12-03T22:51:22.220Z,36.33
2022-12-03T22:53:54.141Z,40.57
2022-12-03T22:56:22.250Z,32.13
2022-12-03T22:58:49.305Z,32.17
2022-12-03T23:01:23.991Z,32.60
2022-12-03T23:03:51.409Z,31.57
2022-12-03T23:06:18.759Z,30.63
2022-12-03T23:08:45.467Z,37.07
2022-12-03T23:11:12.504Z,31.07
2022-12-03T23:13:39.908Z,33.63
2022-12-03T23:16:07.589Z,33.47
2022-12-03T23:18:34.468Z,37.93
2022-12-03T23:21:01.517Z,33.63
2022-12-03T23:23:28.508Z,31.33
2022-12-03T23:26:06.993Z,33.10
2022-12-03T23:28:36.095Z,31.10
2022-12-03T23:31:03.669Z,36.43
2022-12-03T23:33:35.268Z,32.10
2022-12-03T23:36:06.378Z,34.00
2022-12-03T23:38:33.386Z,29.57
2022-12-03T23:41:12.511Z,28.27
2022-12-03T23:43:39.694Z,29.20
2022-12-03T23:46:11.781Z,31.00
2022-12-03T23:48:39.245Z,28.77
2022-12-03T23:51:11.550Z,29.27
2022-12-03T23:53:39.114Z,26.13
2022-12-03T23:56:23.977Z,34.80
2022-12-03T23:58:50.960Z,30.97
